sensor_id;sensor_type;location;lat;lon;timestamp;pressure;altitude;pressure_sealevel;temperature;humidity
69214;BME280;56325;47.030;18.518;2023-07-13T00:01:03;100148.78;;;24.07;72.87
69214;BME280;56325;47.030;18.518;2023-07-13T00:03:38;100138.56;;;24.33;71.84
69214;BME280;56325;47.030;18.518;2023-07-13T00:06:14;100138.03;;;24.42;71.82
69214;BME280;56325;47.030;18.518;2023-07-13T00:08:49;100135.59;;;24.38;72.02
69214;BME280;56325;47.030;18.518;2023-07-13T00:11:23;100132.41;;;24.42;71.82
69214;BME280;56325;47.030;18.518;2023-07-13T00:13:58;100113.31;;;24.48;71.90
69214;BME280;56325;47.030;18.518;2023-07-13T00:16:35;100111.47;;;24.58;71.53
69214;BME280;56325;47.030;18.518;2023-07-13T00:19:10;100104.94;;;24.71;71.06
69214;BME280;56325;47.030;18.518;2023-07-13T00:21:46;100095.75;;;24.78;70.92
69214;BME280;56325;47.030;18.518;2023-07-13T00:24:20;100085.63;;;24.75;71.01
69214;BME280;56325;47.030;18.518;2023-07-13T00:26:57;100087.31;;;24.86;70.68
69214;BME280;56325;47.030;18.518;2023-07-13T00:29:32;100094.63;;;24.89;70.68
69214;BME280;56325;47.030;18.518;2023-07-13T00:32:08;100094.25;;;24.84;70.72
69214;BME280;56325;47.030;18.518;2023-07-13T00:34:44;100097.63;;;24.83;70.71
69214;BME280;56325;47.030;18.518;2023-07-13T00:37:19;100087.13;;;24.91;70.60
69214;BME280;56325;47.030;18.518;2023-07-13T00:39:53;100077.00;;;24.80;70.81
69214;BME280;56325;47.030;18.518;2023-07-13T00:42:28;100076.81;;;24.78;70.67
69214;BME280;56325;47.030;18.518;2023-07-13T00:47:59;100091.63;;;24.79;70.57
69214;BME280;56325;47.030;18.518;2023-07-13T00:50:34;100074.56;;;24.69;70.89
69214;BME280;56325;47.030;18.518;2023-07-13T00:53:09;100083.00;;;24.84;70.52
69214;BME280;56325;47.030;18.518;2023-07-13T00:55:45;100085.63;;;24.82;70.34
69214;BME280;56325;47.030;18.518;2023-07-13T00:58:21;100080.00;;;24.75;70.71
69214;BME280;56325;47.030;18.518;2023-07-13T01:00:57;100081.13;;;24.64;71.04
69214;BME280;56325;47.030;18.518;2023-07-13T01:03:34;100067.59;;;24.55;71.22
69214;BME280;56325;47.030;18.518;2023-07-13T01:06:09;100065.53;;;24.48;71.81
69214;BME280;56325;47.030;18.518;2023-07-13T01:08:44;100049.63;;;24.58;71.46
69214;BME280;56325;47.030;18.518;2023-07-13T01:11:19;100046.25;;;24.52;71.76
69214;BME280;56325;47.030;18.518;2023-07-13T01:13:55;100043.97;;;24.43;72.04
69214;BME280;56325;47.030;18.518;2023-07-13T01:16:32;100041.16;;;24.43;72.03
69214;BME280;56325;47.030;18.518;2023-07-13T01:19:22;100035.91;;;24.24;72.73
69214;BME280;56325;47.030;18.518;2023-07-13T01:22:00;100036.28;;;24.28;72.34
69214;BME280;56325;47.030;18.518;2023-07-13T01:24:35;100028.22;;;24.25;72.75
69214;BME280;56325;47.030;18.518;2023-07-13T01:27:12;100023.53;;;24.19;73.02
69214;BME280;56325;47.030;18.518;2023-07-13T01:29:47;100014.72;;;24.15;73.11
69214;BME280;56325;47.030;18.518;2023-07-13T01:32:24;100007.06;;;24.31;72.46
69214;BME280;56325;47.030;18.518;2023-07-13T01:35:00;100015.47;;;24.16;73.11
69214;BME280;56325;47.030;18.518;2023-07-13T01:37:36;100013.37;;;24.09;73.25
69214;BME280;56325;47.030;18.518;2023-07-13T01:40:11;100018.66;;;24.28;72.79
69214;BME280;56325;47.030;18.518;2023-07-13T01:42:46;100027.84;;;24.21;72.72
69214;BME280;56325;47.030;18.518;2023-07-13T01:45:21;100003.88;;;24.27;72.60
69214;BME280;56325;47.030;18.518;2023-07-13T01:47:55;100013.81;;;24.36;72.14
69214;BME280;56325;47.030;18.518;2023-07-13T01:50:30;100004.59;;;24.20;72.15
69214;BME280;56325;47.030;18.518;2023-07-13T01:53:07;99994.47;;;24.09;72.16
69214;BME280;56325;47.030;18.518;2023-07-13T01:55:42;99999.63;;;23.75;73.67
69214;BME280;56325;47.030;18.518;2023-07-13T01:58:17;100004.88;;;23.78;73.73
69214;BME280;56325;47.030;18.518;2023-07-13T02:00:51;100007.19;;;23.95;72.94
69214;BME280;56325;47.030;18.518;2023-07-13T02:03:26;100003.63;;;24.02;72.50
69214;BME280;56325;47.030;18.518;2023-07-13T02:06:02;100012.59;;;23.49;74.85
69214;BME280;56325;47.030;18.518;2023-07-13T02:08:41;100009.59;;;23.47;75.17
69214;BME280;56325;47.030;18.518;2023-07-13T02:11:16;100014.91;;;23.59;74.62
69214;BME280;56325;47.030;18.518;2023-07-13T02:13:51;100013.87;;;23.84;73.47
69214;BME280;56325;47.030;18.518;2023-07-13T02:16:25;100013.34;;;23.86;73.42
69214;BME280;56325;47.030;18.518;2023-07-13T02:19:00;100004.88;;;23.78;73.68
69214;BME280;56325;47.030;18.518;2023-07-13T02:21:35;100004.06;;;23.63;74.19
69214;BME280;56325;47.030;18.518;2023-07-13T02:24:11;100003.41;;;23.41;74.93
69214;BME280;56325;47.030;18.518;2023-07-13T02:26:50;99996.66;;;23.44;74.97
69214;BME280;56325;47.030;18.518;2023-07-13T02:29:26;99983.84;;;23.57;74.63
69214;BME280;56325;47.030;18.518;2023-07-13T02:32:00;99989.41;;;23.49;74.83
69214;BME280;56325;47.030;18.518;2023-07-13T02:34:35;99995.00;;;23.49;74.96
69214;BME280;56325;47.030;18.518;2023-07-13T02:37:10;100002.38;;;23.60;74.75
69214;BME280;56325;47.030;18.518;2023-07-13T02:39:46;100000.34;;;23.68;74.29
69214;BME280;56325;47.030;18.518;2023-07-13T02:42:21;99989.12;;;23.68;74.21
69214;BME280;56325;47.030;18.518;2023-07-13T02:44:55;99994.75;;;23.68;74.17
69214;BME280;56325;47.030;18.518;2023-07-13T02:47:32;99987.75;;;23.53;74.79
69214;BME280;56325;47.030;18.518;2023-07-13T02:50:07;99994.41;;;23.43;75.29
69214;BME280;56325;47.030;18.518;2023-07-13T02:52:42;99993.09;;;23.36;75.39
69214;BME280;56325;47.030;18.518;2023-07-13T02:55:18;99997.25;;;23.50;74.81
69214;BME280;56325;47.030;18.518;2023-07-13T02:57:52;100005.53;;;23.56;74.77
69214;BME280;56325;47.030;18.518;2023-07-13T03:00:27;100013.41;;;23.58;74.94
69214;BME280;56325;47.030;18.518;2023-07-13T03:03:01;100008.28;;;23.48;75.22
69214;BME280;56325;47.030;18.518;2023-07-13T03:05:37;100014.63;;;23.41;75.79
69214;BME280;56325;47.030;18.518;2023-07-13T03:08:12;100022.59;;;23.22;76.73
69214;BME280;56325;47.030;18.518;2023-07-13T03:10:48;100031.19;;;23.24;76.61
69214;BME280;56325;47.030;18.518;2023-07-13T03:13:22;100022.38;;;23.20;76.80
69214;BME280;56325;47.030;18.518;2023-07-13T03:15:57;100015.91;;;23.33;76.01
69214;BME280;56325;47.030;18.518;2023-07-13T03:18:32;100003.97;;;23.47;75.46
69214;BME280;56325;47.030;18.518;2023-07-13T03:21:07;100004.78;;;23.56;75.19
69214;BME280;56325;47.030;18.518;2023-07-13T03:23:44;100007.44;;;23.61;75.20
69214;BME280;56325;47.030;18.518;2023-07-13T03:26:20;100002.75;;;23.56;75.20
69214;BME280;56325;47.030;18.518;2023-07-13T03:28:55;99996.97;;;23.62;74.98
69214;BME280;56325;47.030;18.518;2023-07-13T03:31:34;100000.75;;;23.72;74.65
69214;BME280;56325;47.030;18.518;2023-07-13T03:34:09;100011.44;;;23.81;74.46
69214;BME280;56325;47.030;18.518;2023-07-13T03:36:44;100017.19;;;23.68;74.93
69214;BME280;56325;47.030;18.518;2023-07-13T03:39:18;100022.78;;;23.60;75.37
69214;BME280;56325;47.030;18.518;2023-07-13T03:41:54;100032.09;;;23.55;75.42
69214;BME280;56325;47.030;18.518;2023-07-13T03:44:29;100031.75;;;23.23;77.13
69214;BME280;56325;47.030;18.518;2023-07-13T03:47:04;100041.13;;;23.25;77.16
69214;BME280;56325;47.030;18.518;2023-07-13T03:49:42;100058.56;;;23.31;76.84
69214;BME280;56325;47.030;18.518;2023-07-13T03:52:16;100067.72;;;23.03;78.14
69214;BME280;56325;47.030;18.518;2023-07-13T03:54:51;100072.56;;;23.03;78.11
69214;BME280;56325;47.030;18.518;2023-07-13T03:57:27;100075.44;;;22.89;79.09
69214;BME280;56325;47.030;18.518;2023-07-13T04:00:03;100085.34;;;23.11;78.41
69214;BME280;56325;47.030;18.518;2023-07-13T04:02:47;100099.84;;;23.02;78.45
69214;BME280;56325;47.030;18.518;2023-07-13T04:05:23;100117.63;;;22.63;80.38
69214;BME280;56325;47.030;18.518;2023-07-13T04:07:57;100126.97;;;22.11;82.85
69214;BME280;56325;47.030;18.518;2023-07-13T04:10:31;100145.66;;;22.29;82.19
69214;BME280;56325;47.030;18.518;2023-07-13T04:13:07;100163.25;;;22.16;83.11
69214;BME280;56325;47.030;18.518;2023-07-13T04:15:43;100180.28;;;22.05;83.55
69214;BME280;56325;47.030;18.518;2023-07-13T04:18:17;100193.00;;;22.06;84.02
69214;BME280;56325;47.030;18.518;2023-07-13T04:20:52;100192.31;;;22.00;84.67
69214;BME280;56325;47.030;18.518;2023-07-13T04:23:27;100183.50;;;22.09;84.43
69214;BME280;56325;47.030;18.518;2023-07-13T04:26:01;100198.16;;;22.02;84.59
69214;BME280;56325;47.030;18.518;2023-07-13T04:28:37;100236.25;;;21.92;85.19
69214;BME280;56325;47.030;18.518;2023-07-13T04:31:12;100337.34;;;21.75;86.81
69214;BME280;56325;47.030;18.518;2023-07-13T04:33:47;100383.53;;;21.50;90.13
69214;BME280;56325;47.030;18.518;2023-07-13T04:36:22;100399.94;;;21.03;92.35
69214;BME280;56325;47.030;18.518;2023-07-13T04:50:05;100407.47;;;19.86;97.77
69214;BME280;56325;47.030;18.518;2023-07-13T04:52:40;100407.47;;;19.86;97.77
69214;BME280;56325;47.030;18.518;2023-07-13T04:55:15;100286.00;;;19.14;100.00
69214;BME280;56325;47.030;18.518;2023-07-13T04:57:51;100242.97;;;19.09;100.00
69214;BME280;56325;47.030;18.518;2023-07-13T05:00:26;100198.84;;;19.13;100.00
69214;BME280;56325;47.030;18.518;2023-07-13T05:03:02;100147.03;;;18.99;100.00
69214;BME280;56325;47.030;18.518;2023-07-13T05:05:38;100161.59;;;19.11;100.00
69214;BME280;56325;47.030;18.518;2023-07-13T05:08:13;100252.38;;;19.36;99.54
69214;BME280;56325;47.030;18.518;2023-07-13T05:10:47;100301.72;;;19.47;99.00
69214;BME280;56325;47.030;18.518;2023-07-13T05:13:22;100377.72;;;19.64;98.58
69214;BME280;56325;47.030;18.518;2023-07-13T05:16:04;100433.22;;;19.68;97.21
69214;BME280;56325;47.030;18.518;2023-07-13T05:18:41;100474.59;;;19.63;97.08
69214;BME280;56325;47.030;18.518;2023-07-13T05:21:17;100416.78;;;19.58;97.03
69214;BME280;56325;47.030;18.518;2023-07-13T05:23:51;100346.41;;;19.41;98.61
69214;BME280;56325;47.030;18.518;2023-07-13T05:26:26;100217.19;;;19.33;99.80
69214;BME280;56325;47.030;18.518;2023-07-13T05:29:00;100168.00;;;19.06;100.00
69214;BME280;56325;47.030;18.518;2023-07-13T05:31:35;100193.06;;;19.36;100.00
69214;BME280;56325;47.030;18.518;2023-07-13T05:34:13;100230.72;;;19.18;100.00
69214;BME280;56325;47.030;18.518;2023-07-13T05:36:49;100240.44;;;19.41;100.00
69214;BME280;56325;47.030;18.518;2023-07-13T05:39:24;100185.31;;;19.23;100.00
69214;BME280;56325;47.030;18.518;2023-07-13T05:41:59;100072.13;;;19.14;100.00
69214;BME280;56325;47.030;18.518;2023-07-13T05:44:33;99847.53;;;19.06;100.00
69214;BME280;56325;47.030;18.518;2023-07-13T05:47:08;99756.25;;;18.93;100.00
69214;BME280;56325;47.030;18.518;2023-07-13T05:49:43;99806.03;;;18.83;100.00
69214;BME280;56325;47.030;18.518;2023-07-13T05:52:18;99797.22;;;18.79;100.00
69214;BME280;56325;47.030;18.518;2023-07-13T05:54:53;99831.03;;;18.89;100.00
69214;BME280;56325;47.030;18.518;2023-07-13T05:57:27;99906.25;;;19.08;100.00
69214;BME280;56325;47.030;18.518;2023-07-13T06:00:03;99880.00;;;19.03;100.00
69214;BME280;56325;47.030;18.518;2023-07-13T06:03:18;99923.78;;;19.64;99.30
69214;BME280;56325;47.030;18.518;2023-07-13T06:06:01;99923.78;;;19.64;99.30
69214;BME280;56325;47.030;18.518;2023-07-13T06:08:36;99959.03;;;19.43;100.00
69214;BME280;56325;47.030;18.518;2023-07-13T06:11:14;100043.81;;;19.78;98.33
69214;BME280;56325;47.030;18.518;2023-07-13T06:13:49;100105.63;;;19.82;97.42
69214;BME280;56325;47.030;18.518;2023-07-13T06:16:24;100109.69;;;20.00;96.47
69214;BME280;56325;47.030;18.518;2023-07-13T06:19:00;100088.31;;;19.89;97.20
69214;BME280;56325;47.030;18.518;2023-07-13T06:21:35;100055.53;;;20.27;96.14
69214;BME280;56325;47.030;18.518;2023-07-13T06:24:10;100065.50;;;20.73;92.57
69214;BME280;56325;47.030;18.518;2023-07-13T06:26:45;100096.25;;;20.86;92.57
69214;BME280;56325;47.030;18.518;2023-07-13T06:29:19;100097.09;;;20.81;91.04
69214;BME280;56325;47.030;18.518;2023-07-13T06:31:54;100066.25;;;20.74;94.96
69214;BME280;56325;47.030;18.518;2023-07-13T06:34:30;100072.94;;;20.97;92.38
69214;BME280;56325;47.030;18.518;2023-07-13T06:37:05;100098.28;;;21.31;91.08
69214;BME280;56325;47.030;18.518;2023-07-13T06:39:40;100130.56;;;21.58;91.86
69214;BME280;56325;47.030;18.518;2023-07-13T06:42:16;100172.31;;;21.83;90.61
69214;BME280;56325;47.030;18.518;2023-07-13T06:44:50;100152.94;;;21.45;92.38
69214;BME280;56325;47.030;18.518;2023-07-13T06:47:25;100144.09;;;21.81;91.07
69214;BME280;56325;47.030;18.518;2023-07-13T06:50:04;100168.97;;;21.98;87.34
69214;BME280;56325;47.030;18.518;2023-07-13T06:52:39;100207.41;;;22.23;88.09
69214;BME280;56325;47.030;18.518;2023-07-13T06:55:13;100215.59;;;22.21;88.13
69214;BME280;56325;47.030;18.518;2023-07-13T06:57:48;100224.53;;;22.33;87.70
69214;BME280;56325;47.030;18.518;2023-07-13T07:00:23;100235.09;;;22.27;86.37
69214;BME280;56325;47.030;18.518;2023-07-13T07:02:57;100230.25;;;22.28;86.72
69214;BME280;56325;47.030;18.518;2023-07-13T07:05:33;100220.41;;;22.47;85.82
69214;BME280;56325;47.030;18.518;2023-07-13T07:08:08;100223.34;;;22.42;84.21
69214;BME280;56325;47.030;18.518;2023-07-13T07:10:42;100225.25;;;22.47;85.70
69214;BME280;56325;47.030;18.518;2023-07-13T07:13:18;100237.91;;;22.61;84.25
69214;BME280;56325;47.030;18.518;2023-07-13T07:15:52;100242.41;;;22.77;83.74
69214;BME280;56325;47.030;18.518;2023-07-13T07:18:27;100239.50;;;22.70;83.09
69214;BME280;56325;47.030;18.518;2023-07-13T07:21:03;100255.91;;;22.79;83.62
69214;BME280;56325;47.030;18.518;2023-07-13T07:23:38;100256.44;;;22.64;83.97
69214;BME280;56325;47.030;18.518;2023-07-13T08:22:48;100302.72;;;24.73;73.75
69214;BME280;56325;47.030;18.518;2023-07-13T08:25:23;100302.72;;;24.73;73.75
69214;BME280;56325;47.030;18.518;2023-07-13T08:27:57;100308.91;;;24.36;75.70
69214;BME280;56325;47.030;18.518;2023-07-13T08:30:32;100318.63;;;24.06;74.05
69214;BME280;56325;47.030;18.518;2023-07-13T08:33:06;100316.03;;;24.37;75.29
69214;BME280;56325;47.030;18.518;2023-07-13T08:35:41;100317.66;;;24.61;75.01
69214;BME280;56325;47.030;18.518;2023-07-13T08:38:18;100321.00;;;24.59;73.88
69214;BME280;56325;47.030;18.518;2023-07-13T08:40:54;100308.59;;;24.91;72.30
69214;BME280;56325;47.030;18.518;2023-07-13T08:43:34;100309.41;;;25.06;70.13
69214;BME280;56325;47.030;18.518;2023-07-13T08:46:12;100305.66;;;25.04;70.50
69214;BME280;56325;47.030;18.518;2023-07-13T08:48:50;100296.09;;;25.14;69.68
69214;BME280;56325;47.030;18.518;2023-07-13T08:51:34;100311.47;;;25.13;69.85
69214;BME280;56325;47.030;18.518;2023-07-13T08:54:18;100303.97;;;25.08;69.21
69214;BME280;56325;47.030;18.518;2023-07-13T08:56:55;100301.16;;;25.16;68.98
69214;BME280;56325;47.030;18.518;2023-07-13T08:59:33;100293.53;;;25.62;68.39
69214;BME280;56325;47.030;18.518;2023-07-13T09:02:19;100294.63;;;25.44;68.51
69214;BME280;56325;47.030;18.518;2023-07-13T09:04:59;100297.84;;;25.48;66.98
69214;BME280;56325;47.030;18.518;2023-07-13T09:07:48;100308.34;;;25.55;65.04
69214;BME280;56325;47.030;18.518;2023-07-13T09:10:31;100299.72;;;25.53;65.69
69214;BME280;56325;47.030;18.518;2023-07-13T09:13:19;100296.00;;;25.81;67.22
69214;BME280;56325;47.030;18.518;2023-07-13T09:15:59;100293.34;;;25.60;65.75
69214;BME280;56325;47.030;18.518;2023-07-13T09:18:36;100285.63;;;25.61;67.15
69214;BME280;56325;47.030;18.518;2023-07-13T09:21:15;100291.66;;;25.95;67.19
69214;BME280;56325;47.030;18.518;2023-07-13T09:23:53;100296.31;;;26.08;65.85
69214;BME280;56325;47.030;18.518;2023-07-13T09:26:32;100289.75;;;25.60;65.16
69214;BME280;56325;47.030;18.518;2023-07-13T09:29:33;100287.91;;;25.85;63.48
69214;BME280;56325;47.030;18.518;2023-07-13T09:32:32;100282.22;;;26.08;63.55
69214;BME280;56325;47.030;18.518;2023-07-13T09:39:29;100281.78;;;26.42;61.43
69214;BME280;56325;47.030;18.518;2023-07-13T09:46:20;100276.00;;;26.80;60.82
69214;BME280;56325;47.030;18.518;2023-07-13T14:03:32;100184.50;;;28.98;51.05
69214;BME280;56325;47.030;18.518;2023-07-13T14:06:09;100184.50;;;28.98;51.05
69214;BME280;56325;47.030;18.518;2023-07-13T14:08:46;100194.66;;;28.47;51.01
69214;BME280;56325;47.030;18.518;2023-07-13T14:11:21;100194.16;;;28.41;51.69
69214;BME280;56325;47.030;18.518;2023-07-13T14:13:59;100200.50;;;28.32;52.31
69214;BME280;56325;47.030;18.518;2023-07-13T14:16:34;100211.47;;;28.45;52.18
69214;BME280;56325;47.030;18.518;2023-07-13T14:19:12;100213.81;;;28.22;53.67
69214;BME280;56325;47.030;18.518;2023-07-13T14:21:47;100219.87;;;28.01;54.68
69214;BME280;56325;47.030;18.518;2023-07-13T14:24:22;100227.09;;;27.94;55.08
69214;BME280;56325;47.030;18.518;2023-07-13T14:26:57;100231.44;;;27.95;56.80
69214;BME280;56325;47.030;18.518;2023-07-13T14:29:32;100229.50;;;27.81;55.71
69214;BME280;56325;47.030;18.518;2023-07-13T14:32:10;100225.75;;;27.78;56.30
69214;BME280;56325;47.030;18.518;2023-07-13T14:34:46;100238.97;;;27.75;56.64
69214;BME280;56325;47.030;18.518;2023-07-13T14:37:20;100249.16;;;27.54;57.94
69214;BME280;56325;47.030;18.518;2023-07-13T14:39:55;100242.75;;;27.53;58.89
69214;BME280;56325;47.030;18.518;2023-07-13T14:42:30;100246.56;;;27.48;58.96
69214;BME280;56325;47.030;18.518;2023-07-13T14:45:05;100255.31;;;27.35;59.76
69214;BME280;56325;47.030;18.518;2023-07-13T14:47:46;100260.56;;;27.38;59.95
69214;BME280;56325;47.030;18.518;2023-07-13T14:50:28;100266.31;;;27.23;60.48
69214;BME280;56325;47.030;18.518;2023-07-13T14:53:04;100259.00;;;27.20;60.02
69214;BME280;56325;47.030;18.518;2023-07-13T14:55:39;100277.00;;;27.00;61.16
69214;BME280;56325;47.030;18.518;2023-07-13T14:58:13;100279.09;;;26.99;61.88
69214;BME280;56325;47.030;18.518;2023-07-13T15:00:48;100258.88;;;26.78;62.82
69214;BME280;56325;47.030;18.518;2023-07-13T15:03:26;100236.13;;;26.76;63.75
69214;BME280;56325;47.030;18.518;2023-07-13T15:06:02;100203.56;;;26.50;66.00
69214;BME280;56325;47.030;18.518;2023-07-13T15:08:37;100195.84;;;26.51;67.42
69214;BME280;56325;47.030;18.518;2023-07-13T15:11:13;100176.25;;;26.60;67.88
69214;BME280;56325;47.030;18.518;2023-07-13T15:13:48;100174.81;;;26.44;68.63
69214;BME280;56325;47.030;18.518;2023-07-13T15:16:25;100169.84;;;26.12;70.22
69214;BME280;56325;47.030;18.518;2023-07-13T15:19:00;100180.78;;;26.00;71.78
69214;BME280;56325;47.030;18.518;2023-07-13T15:21:36;100214.56;;;26.16;72.88
69214;BME280;56325;47.030;18.518;2023-07-13T15:24:11;100253.09;;;26.05;72.98
69214;BME280;56325;47.030;18.518;2023-07-13T15:26:46;100297.09;;;25.93;76.08
69214;BME280;56325;47.030;18.518;2023-07-13T15:29:22;100321.34;;;25.81;76.78
69214;BME280;56325;47.030;18.518;2023-07-13T15:31:57;100335.56;;;25.60;76.58
69214;BME280;56325;47.030;18.518;2023-07-13T15:34:32;100353.53;;;25.27;77.92
69214;BME280;56325;47.030;18.518;2023-07-13T15:37:12;100369.03;;;24.97;79.37
69214;BME280;56325;47.030;18.518;2023-07-13T15:39:48;100361.00;;;25.09;78.07
69214;BME280;56325;47.030;18.518;2023-07-13T15:42:23;100355.28;;;24.94;77.85
69214;BME280;56325;47.030;18.518;2023-07-13T15:44:57;100356.13;;;24.73;78.48
69214;BME280;56325;47.030;18.518;2023-07-13T15:47:34;100357.75;;;24.61;78.70
69214;BME280;56325;47.030;18.518;2023-07-13T15:50:13;100364.50;;;24.58;78.85
69214;BME280;56325;47.030;18.518;2023-07-13T15:52:52;100357.03;;;24.32;79.94
69214;BME280;56325;47.030;18.518;2023-07-13T15:55:27;100350.00;;;24.18;80.00
69214;BME280;56325;47.030;18.518;2023-07-13T15:58:01;100333.66;;;23.88;80.37
69214;BME280;56325;47.030;18.518;2023-07-13T16:00:36;100307.50;;;23.72;82.54
69214;BME280;56325;47.030;18.518;2023-07-13T16:03:15;100267.66;;;23.74;83.63
69214;BME280;56325;47.030;18.518;2023-07-13T16:05:51;100242.62;;;23.83;83.62
69214;BME280;56325;47.030;18.518;2023-07-13T16:08:31;100237.31;;;24.01;83.81
69214;BME280;56325;47.030;18.518;2023-07-13T16:11:12;100221.69;;;24.21;83.18
69214;BME280;56325;47.030;18.518;2023-07-13T16:13:50;100195.03;;;24.50;80.46
69214;BME280;56325;47.030;18.518;2023-07-13T16:16:29;100175.16;;;24.48;81.64
69214;BME280;56325;47.030;18.518;2023-07-13T16:19:05;100178.69;;;24.41;81.86
69214;BME280;56325;47.030;18.518;2023-07-13T16:21:45;100169.88;;;24.37;81.94
69214;BME280;56325;47.030;18.518;2023-07-13T16:24:23;100187.62;;;24.24;82.28
69214;BME280;56325;47.030;18.518;2023-07-13T16:26:58;100208.88;;;24.40;82.04
69214;BME280;56325;47.030;18.518;2023-07-13T16:29:36;100232.50;;;24.45;82.77
69214;BME280;56325;47.030;18.518;2023-07-13T16:32:13;100240.66;;;24.28;83.81
69214;BME280;56325;47.030;18.518;2023-07-13T16:34:48;100249.44;;;24.24;83.66
69214;BME280;56325;47.030;18.518;2023-07-13T16:37:26;100261.03;;;24.21;83.91
69214;BME280;56325;47.030;18.518;2023-07-13T16:40:18;100258.44;;;24.23;83.94
69214;BME280;56325;47.030;18.518;2023-07-13T16:42:56;100248.06;;;24.10;84.61
69214;BME280;56325;47.030;18.518;2023-07-13T16:45:32;100240.47;;;23.97;85.26
69214;BME280;56325;47.030;18.518;2023-07-13T16:48:12;100236.38;;;23.70;84.53
69214;BME280;56325;47.030;18.518;2023-07-13T16:50:52;100223.97;;;23.65;85.97
69214;BME280;56325;47.030;18.518;2023-07-13T16:53:30;100224.34;;;23.90;84.18
69214;BME280;56325;47.030;18.518;2023-07-13T16:56:13;100232.06;;;23.69;84.61
69214;BME280;56325;47.030;18.518;2023-07-13T16:58:49;100235.56;;;23.62;85.94
69214;BME280;56325;47.030;18.518;2023-07-13T17:01:24;100225.34;;;23.72;85.19
69214;BME280;56325;47.030;18.518;2023-07-13T17:03:58;100228.16;;;23.72;84.40
69214;BME280;56325;47.030;18.518;2023-07-13T17:06:34;100215.31;;;23.56;85.57
69214;BME280;56325;47.030;18.518;2023-07-13T17:09:11;100193.25;;;23.60;87.26
69214;BME280;56325;47.030;18.518;2023-07-13T17:11:48;100202.63;;;23.91;84.51
69214;BME280;56325;47.030;18.518;2023-07-13T17:14:23;100242.12;;;23.93;84.55
69214;BME280;56325;47.030;18.518;2023-07-13T17:17:00;100275.66;;;23.91;84.07
69214;BME280;56325;47.030;18.518;2023-07-13T17:19:35;100312.78;;;23.76;84.76
69214;BME280;56325;47.030;18.518;2023-07-13T17:22:10;100319.81;;;23.48;86.62
69214;BME280;56325;47.030;18.518;2023-07-13T17:24:51;100325.97;;;23.47;87.21
69214;BME280;56325;47.030;18.518;2023-07-13T17:27:30;100327.94;;;23.18;87.26
69214;BME280;56325;47.030;18.518;2023-07-13T17:30:13;100314.53;;;23.24;86.20
69214;BME280;56325;47.030;18.518;2023-07-13T17:32:50;100312.38;;;23.30;86.59
69214;BME280;56325;47.030;18.518;2023-07-13T17:35:26;100294.97;;;23.11;88.21
69214;BME280;56325;47.030;18.518;2023-07-13T17:38:03;100285.19;;;23.25;87.05
69214;BME280;56325;47.030;18.518;2023-07-13T17:40:39;100252.75;;;23.37;86.74
69214;BME280;56325;47.030;18.518;2023-07-13T17:43:15;100238.38;;;23.62;85.99
69214;BME280;56325;47.030;18.518;2023-07-13T17:45:49;100241.56;;;23.66;84.71
69214;BME280;56325;47.030;18.518;2023-07-13T17:48:25;100268.06;;;23.78;83.79
69214;BME280;56325;47.030;18.518;2023-07-13T17:50:59;100278.06;;;23.66;84.36
69214;BME280;56325;47.030;18.518;2023-07-13T17:53:35;100281.97;;;23.63;84.39
69214;BME280;56325;47.030;18.518;2023-07-13T17:56:09;100278.00;;;23.58;84.00
69214;BME280;56325;47.030;18.518;2023-07-13T17:58:47;100273.56;;;23.63;84.23
69214;BME280;56325;47.030;18.518;2023-07-13T18:01:22;100284.50;;;23.74;83.70
69214;BME280;56325;47.030;18.518;2023-07-13T18:03:58;100293.06;;;23.68;82.63
69214;BME280;56325;47.030;18.518;2023-07-13T18:06:37;100297.13;;;23.60;83.05
69214;BME280;56325;47.030;18.518;2023-07-13T18:09:17;100308.47;;;23.54;83.43
69214;BME280;56325;47.030;18.518;2023-07-13T18:11:52;100302.13;;;23.53;82.98
69214;BME280;56325;47.030;18.518;2023-07-13T18:14:29;100306.28;;;23.39;83.48
69214;BME280;56325;47.030;18.518;2023-07-13T18:17:10;100310.19;;;23.36;83.96
69214;BME280;56325;47.030;18.518;2023-07-13T18:19:47;100319.31;;;23.16;84.89
69214;BME280;56325;47.030;18.518;2023-07-13T18:22:23;100329.53;;;23.27;83.50
69214;BME280;56325;47.030;18.518;2023-07-13T18:24:58;100330.22;;;23.40;84.31
69214;BME280;56325;47.030;18.518;2023-07-13T18:27:33;100335.63;;;23.38;84.91
69214;BME280;56325;47.030;18.518;2023-07-13T18:30:12;100340.00;;;23.26;86.06
69214;BME280;56325;47.030;18.518;2023-07-13T18:32:49;100331.53;;;23.39;85.21
69214;BME280;56325;47.030;18.518;2023-07-13T18:35:28;100326.81;;;23.34;85.22
69214;BME280;56325;47.030;18.518;2023-07-13T18:38:03;100320.69;;;23.43;84.64
69214;BME280;56325;47.030;18.518;2023-07-13T18:40:38;100324.53;;;23.33;85.21
69214;BME280;56325;47.030;18.518;2023-07-13T18:43:13;100330.78;;;23.39;85.26
69214;BME280;56325;47.030;18.518;2023-07-13T18:45:50;100337.91;;;23.61;83.84
69214;BME280;56325;47.030;18.518;2023-07-13T18:48:28;100347.88;;;23.48;84.77
69214;BME280;56325;47.030;18.518;2023-07-13T18:51:05;100351.19;;;23.39;85.34
69214;BME280;56325;47.030;18.518;2023-07-13T18:53:41;100364.78;;;23.35;85.57
69214;BME280;56325;47.030;18.518;2023-07-13T18:56:16;100375.75;;;23.12;86.98
69214;BME280;56325;47.030;18.518;2023-07-13T18:58:51;100380.91;;;23.21;86.61
69214;BME280;56325;47.030;18.518;2023-07-13T19:01:31;100376.31;;;22.98;87.79